createdAt,value
2018-02-05T00:02:09.912Z,-1.20
2018-02-05T00:04:38.283Z,-1.20
2018-02-05T00:07:06.623Z,-1.20
2018-02-05T00:09:34.936Z,-1.20
2018-02-05T00:12:03.254Z,-1.20
2018-02-05T00:14:31.592Z,-1.20
2018-02-05T00:16:59.946Z,-1.20
2018-02-05T00:19:28.278Z,-1.20
2018-02-05T00:21:56.587Z,-1.20
2018-02-05T00:24:24.918Z,-1.20
2018-02-05T00:26:53.234Z,-1.20
2018-02-05T00:29:21.565Z,-1.20
2018-02-05T00:31:49.879Z,-1.30
2018-02-05T00:34:18.211Z,-1.30
2018-02-05T00:36:46.525Z,-1.20
2018-02-05T00:39:14.867Z,-1.20
2018-02-05T00:41:43.194Z,-1.20
2018-02-05T00:44:11.530Z,-1.20
2018-02-05T00:46:39.845Z,-1.20
2018-02-05T00:49:08.183Z,-1.20
2018-02-05T00:51:36.505Z,-1.10
2018-02-05T00:54:04.838Z,-1.10
2018-02-05T00:56:33.161Z,-1.00
2018-02-05T00:59:01.499Z,-1.00
2018-02-05T01:01:29.815Z,-1.10
2018-02-05T01:03:58.151Z,-1.10
2018-02-05T01:06:26.470Z,-1.10
2018-02-05T01:08:54.805Z,-1.10
2018-02-05T01:11:23.122Z,-1.10
2018-02-05T01:13:51.455Z,-1.10
2018-02-05T01:16:19.778Z,-1.10
2018-02-05T01:18:48.112Z,-1.10
2018-02-05T01:21:16.422Z,-1.10
2018-02-05T01:23:44.751Z,-1.10
2018-02-05T01:26:13.072Z,-1.10
2018-02-05T01:28:41.409Z,-1.10
2018-02-05T01:31:09.736Z,-1.10
2018-02-05T01:33:38.071Z,-1.10
2018-02-05T01:36:06.390Z,-1.00
2018-02-05T01:38:34.732Z,-1.00
2018-02-05T01:41:03.050Z,-1.10
2018-02-05T01:43:31.387Z,-1.00
2018-02-05T01:45:59.704Z,-1.10
2018-02-05T01:48:28.039Z,-1.10
2018-02-05T01:50:56.363Z,-1.00
2018-02-05T01:53:24.699Z,-1.00
2018-02-05T01:55:53.012Z,-1.10
2018-02-05T01:58:20.563Z,-1.10
2018-02-05T02:00:48.908Z,-1.00
2018-02-05T02:03:17.230Z,-1.00
2018-02-05T02:05:45.562Z,-1.00
2018-02-05T02:08:13.874Z,-1.10
2018-02-05T02:10:42.209Z,-1.10
2018-02-05T02:13:10.522Z,-1.00
2018-02-05T02:15:38.867Z,-1.10
2018-02-05T02:18:07.194Z,-1.10
2018-02-05T02:20:35.530Z,-1.10
2018-02-05T02:23:03.842Z,-1.10
2018-02-05T02:25:32.187Z,-1.10
2018-02-05T02:28:00.502Z,-1.10
2018-02-05T02:30:28.839Z,-1.10
2018-02-05T02:32:57.153Z,-1.20
2018-02-05T02:35:25.491Z,-1.20
2018-02-05T02:37:53.810Z,-1.20
2018-02-05T02:40:22.152Z,-1.20
2018-02-05T02:42:50.473Z,-1.20
2018-02-05T02:45:18.810Z,-1.10
2018-02-05T02:47:47.127Z,-1.10
2018-02-05T02:50:15.476Z,-1.10
2018-02-05T02:52:43.791Z,-1.10
2018-02-05T02:55:12.134Z,-1.00
2018-02-05T02:57:40.450Z,-1.00
2018-02-05T03:00:08.792Z,-1.10
2018-02-05T03:02:37.104Z,-1.10
2018-02-05T03:05:05.445Z,-1.10
2018-02-05T03:07:33.756Z,-1.00
2018-02-05T03:10:02.098Z,-1.00
2018-02-05T03:12:30.416Z,-1.00
2018-02-05T03:14:58.750Z,-1.10
2018-02-05T03:17:27.064Z,-1.10
2018-02-05T03:19:55.403Z,-1.10
2018-02-05T03:22:23.719Z,-1.10
2018-02-05T03:24:52.068Z,-1.10
2018-02-05T03:27:20.389Z,-1.10
2018-02-05T03:29:48.730Z,-1.10
2018-02-05T03:32:17.047Z,-1.10
2018-02-05T03:34:45.391Z,-1.10
2018-02-05T03:37:13.703Z,-1.10
2018-02-05T03:39:42.020Z,-1.10
2018-02-05T03:42:10.359Z,-1.10
2018-02-05T03:44:38.679Z,-1.20
2018-02-05T03:47:07.056Z,-1.20
2018-02-05T03:49:35.399Z,-1.20
2018-02-05T03:52:03.718Z,-1.20
2018-02-05T03:54:32.035Z,-1.30
2018-02-05T03:57:00.375Z,-1.30
2018-02-05T03:59:28.718Z,-1.40
2018-02-05T04:01:57.063Z,-1.40
2018-02-05T04:04:25.384Z,-1.40
2018-02-05T04:06:59.439Z,-1.30
2018-02-05T04:09:27.754Z,-1.30
2018-02-05T04:11:56.086Z,-1.30
2018-02-05T04:14:24.398Z,-1.30
2018-02-05T04:16:52.736Z,-1.30
2018-02-05T04:19:21.047Z,-1.30
2018-02-05T04:21:49.380Z,-1.30
2018-02-05T04:24:17.696Z,-1.30
2018-02-05T04:26:46.030Z,-1.40
2018-02-05T04:29:14.369Z,-1.40
2018-02-05T04:31:42.699Z,-1.30
2018-02-05T04:34:11.021Z,-1.30
2018-02-05T04:36:39.356Z,-1.20
2018-02-05T04:39:07.670Z,-1.20
2018-02-05T04:41:36.008Z,-1.20
2018-02-05T04:44:04.326Z,-1.20
2018-02-05T04:46:32.656Z,-1.10
2018-02-05T04:49:00.967Z,-1.10
2018-02-05T04:51:29.312Z,-1.20
2018-02-05T04:53:57.638Z,-1.20
2018-02-05T04:56:25.976Z,-1.20
2018-02-05T04:58:54.286Z,-1.20
2018-02-05T05:01:22.616Z,-1.20
2018-02-05T05:03:50.931Z,-1.20
2018-02-05T05:06:19.262Z,-1.10
2018-02-05T05:08:47.571Z,-1.10
2018-02-05T05:11:15.910Z,-1.20
2018-02-05T05:13:44.230Z,-1.20
2018-02-05T05:16:12.585Z,-1.30
2018-02-05T05:18:40.932Z,-1.20
2018-02-05T05:21:09.273Z,-1.20
2018-02-05T05:23:37.582Z,-1.20
2018-02-05T05:26:05.898Z,-1.20
2018-02-05T05:28:34.240Z,-1.20
2018-02-05T05:31:02.554Z,-1.20
2018-02-05T05:33:30.892Z,-1.20
2018-02-05T05:35:59.214Z,-1.20
2018-02-05T05:38:27.553Z,-1.20
2018-02-05T05:40:55.870Z,-1.20
2018-02-05T05:43:24.210Z,-1.20
2018-02-05T05:45:52.514Z,-1.20
2018-02-05T05:48:20.854Z,-1.20
2018-02-05T05:50:49.166Z,-1.20
2018-02-05T05:53:17.509Z,-1.20
2018-02-05T05:55:45.831Z,-1.20
2018-02-05T05:58:14.171Z,-1.20
2018-02-05T06:00:42.496Z,-1.20
2018-02-05T06:03:10.835Z,-1.20
2018-02-05T06:05:39.150Z,-1.20
2018-02-05T06:08:07.495Z,-1.20
2018-02-05T06:10:35.798Z,-1.20
2018-02-05T06:13:04.179Z,-1.20
2018-02-05T06:15:32.478Z,-1.20
2018-02-05T06:18:00.822Z,-1.20
2018-02-05T06:20:29.134Z,-1.20
2018-02-05T06:22:57.466Z,-1.20
2018-02-05T06:25:25.814Z,-1.20
2018-02-05T06:27:54.172Z,-1.20
2018-02-05T06:30:22.486Z,-1.20
2018-02-05T06:32:50.839Z,-1.20
2018-02-05T06:35:19.166Z,-1.20
2018-02-05T06:37:47.507Z,-1.20
2018-02-05T06:40:15.818Z,-1.20
2018-02-05T06:42:44.158Z,-1.20
2018-02-05T06:45:12.478Z,-1.20
2018-02-05T06:47:40.819Z,-1.10
2018-02-05T06:50:09.138Z,-1.10
2018-02-05T06:52:59.249Z,-1.20
2018-02-05T06:55:39.378Z,-1.20
2018-02-05T06:58:07.709Z,-1.30
2018-02-05T07:00:36.032Z,-1.20
2018-02-05T07:03:04.370Z,-1.20
2018-02-05T07:05:32.699Z,-1.20
2018-02-05T07:08:01.046Z,-1.20
2018-02-05T07:10:29.371Z,-1.20
2018-02-05T07:12:57.710Z,-1.10
2018-02-05T07:15:26.026Z,-1.10
2018-02-05T07:17:54.371Z,-1.10
2018-02-05T07:20:22.685Z,-1.10
2018-02-05T07:22:51.030Z,-1.00
2018-02-05T07:25:19.352Z,-1.00
2018-02-05T07:27:47.663Z,-1.00
2018-02-05T07:30:16.068Z,-1.00
2018-02-05T07:32:44.387Z,-1.00
2018-02-05T07:35:12.734Z,-0.90
2018-02-05T07:37:41.042Z,-0.90
2018-02-05T07:40:09.385Z,-0.80
2018-02-05T07:42:37.699Z,-0.80
2018-02-05T07:45:06.032Z,-0.70
2018-02-05T07:47:34.359Z,-0.70
2018-02-05T07:50:02.699Z,-0.60
2018-02-05T07:52:31.010Z,-0.60
2018-02-05T07:54:59.338Z,-0.50
2018-02-05T07:57:27.654Z,-0.50
2018-02-05T07:59:56.001Z,-0.40
2018-02-05T08:02:24.333Z,-0.30
2018-02-05T08:04:52.680Z,-0.20
2018-02-05T08:07:20.990Z,-0.10
2018-02-05T08:09:49.330Z,-0.10
2018-02-05T08:12:17.653Z,0.00
2018-02-05T08:14:45.992Z,0.00
2018-02-05T08:17:14.314Z,0.10
2018-02-05T08:19:42.655Z,0.10
2018-02-05T08:22:10.970Z,0.20
2018-02-05T08:24:39.316Z,0.20
2018-02-05T08:27:07.634Z,0.20
2018-02-05T08:29:35.977Z,0.20
2018-02-05T08:32:04.290Z,0.30
2018-02-05T08:34:32.623Z,0.40
2018-02-05T08:37:00.179Z,0.40
2018-02-05T08:39:28.514Z,0.50
2018-02-05T08:41:56.837Z,0.50
2018-02-05T08:44:25.189Z,0.50
2018-02-05T08:46:53.502Z,0.50
2018-02-05T08:49:21.851Z,0.60
2018-02-05T08:51:50.179Z,0.70
2018-02-05T08:54:18.516Z,0.80
2018-02-05T08:56:46.821Z,0.80
2018-02-05T08:59:15.160Z,0.90
2018-02-05T09:01:43.478Z,0.90
2018-02-05T09:04:11.810Z,0.90
2018-02-05T09:06:40.122Z,0.90
2018-02-05T09:09:08.440Z,1.00
2018-02-05T09:11:36.930Z,1.00
2018-02-05T09:14:05.257Z,1.10
2018-02-05T09:16:33.587Z,1.20
2018-02-05T09:19:01.911Z,1.30
2018-02-05T09:21:30.248Z,1.30
2018-02-05T09:23:58.554Z,1.40
2018-02-05T09:26:26.132Z,1.30
2018-02-05T09:28:54.442Z,1.50
2018-02-05T09:31:22.770Z,1.60
2018-02-05T09:33:51.092Z,1.70
2018-02-05T09:36:19.431Z,1.80
2018-02-05T09:38:47.743Z,1.90
2018-02-05T09:41:16.080Z,1.90
2018-02-05T09:43:44.394Z,2.00
2018-02-05T09:46:12.731Z,2.00
2018-02-05T09:48:41.052Z,2.00
2018-02-05T09:51:09.386Z,2.20
2018-02-05T09:53:37.693Z,2.40
2018-02-05T09:56:06.032Z,2.60
2018-02-05T09:58:34.342Z,2.70
2018-02-05T10:01:02.735Z,2.70
2018-02-05T10:03:31.021Z,2.70
2018-02-05T10:05:59.352Z,2.60
2018-02-05T10:08:27.662Z,2.50
2018-02-05T10:10:55.999Z,2.40
2018-02-05T10:13:24.307Z,2.40
2018-02-05T10:15:52.647Z,2.40
2018-02-05T10:18:20.963Z,2.50
2018-02-05T10:20:49.301Z,2.50
2018-02-05T10:23:17.611Z,2.40
2018-02-05T10:25:45.947Z,2.30
2018-02-05T10:28:14.282Z,2.30
2018-02-05T10:30:42.627Z,2.60
2018-02-05T10:33:10.938Z,2.70
2018-02-05T10:35:39.271Z,2.60
2018-02-05T10:38:07.591Z,2.50
2018-02-05T10:40:35.931Z,2.40
2018-02-05T10:43:04.246Z,2.50
2018-02-05T10:45:32.587Z,2.50
2018-02-05T10:48:00.907Z,2.60
2018-02-05T10:50:29.251Z,2.60
2018-02-05T10:52:56.799Z,2.60
2018-02-05T10:55:25.111Z,2.60
2018-02-05T10:57:53.450Z,2.80
2018-02-05T11:00:21.767Z,2.90
2018-02-05T11:02:50.102Z,2.90
2018-02-05T11:05:18.411Z,2.90
2018-02-05T11:07:46.740Z,2.80
2018-02-05T11:10:15.054Z,2.80
2018-02-05T11:12:43.411Z,2.80
2018-02-05T11:15:11.718Z,2.90
2018-02-05T11:17:40.057Z,3.10
2018-02-05T11:20:08.370Z,3.30
2018-02-05T11:22:36.715Z,3.40
2018-02-05T11:25:05.028Z,3.30
2018-02-05T11:27:33.359Z,3.20
2018-02-05T11:30:01.676Z,3.00
2018-02-05T11:32:30.015Z,3.00
2018-02-05T11:34:58.380Z,2.90
2018-02-05T11:37:26.715Z,3.00
2018-02-05T11:39:55.035Z,3.20
2018-02-05T11:42:23.372Z,3.50
2018-02-05T11:44:51.678Z,3.70
2018-02-05T11:47:20.018Z,3.70
2018-02-05T11:49:48.331Z,3.70
2018-02-05T11:52:16.671Z,3.80
2018-02-05T11:54:45.007Z,3.70
2018-02-05T11:57:13.355Z,3.70
2018-02-05T11:59:41.677Z,3.90
2018-02-05T12:02:10.014Z,3.90
2018-02-05T12:04:38.322Z,3.90
2018-02-05T12:07:06.679Z,3.80
2018-02-05T12:09:35.053Z,3.80
2018-02-05T12:12:03.384Z,3.90
2018-02-05T12:14:31.702Z,3.70
2018-02-05T12:17:00.043Z,3.70
2018-02-05T12:19:28.356Z,3.90
2018-02-05T12:21:56.690Z,3.80
2018-02-05T12:24:25.006Z,3.90
2018-02-05T12:26:53.341Z,4.00
2018-02-05T12:29:21.648Z,4.10
2018-02-05T12:31:49.986Z,4.10
2018-02-05T12:34:18.303Z,4.20
2018-02-05T12:36:46.631Z,4.20
2018-02-05T12:39:14.955Z,4.10
2018-02-05T12:41:43.266Z,4.10
2018-02-05T12:44:11.603Z,3.90
2018-02-05T12:46:39.923Z,3.90
2018-02-05T12:49:08.299Z,4.10
2018-02-05T12:51:36.620Z,3.90
2018-02-05T12:54:04.959Z,4.00
2018-02-05T12:56:33.265Z,4.10
2018-02-05T12:59:01.597Z,4.20
2018-02-05T13:01:32.766Z,4.30
2018-02-05T13:04:02.586Z,4.20
2018-02-05T13:06:46.606Z,4.20
2018-02-05T13:09:14.936Z,4.10
2018-02-05T13:11:43.254Z,4.30
2018-02-05T13:14:11.592Z,4.30
2018-02-05T13:16:39.907Z,4.30
2018-02-05T13:19:08.246Z,4.40
2018-02-05T13:21:36.546Z,4.50
2018-02-05T13:24:04.884Z,4.50
2018-02-05T13:26:33.198Z,4.50
2018-02-05T13:29:01.728Z,4.30
2018-02-05T13:31:30.042Z,4.20
2018-02-05T13:33:57.602Z,4.20
2018-02-05T13:36:26.226Z,4.10
2018-02-05T13:38:54.550Z,4.10
2018-02-05T13:41:22.867Z,4.10
2018-02-05T13:43:51.205Z,4.20
2018-02-05T13:46:19.526Z,4.30
2018-02-05T13:48:47.857Z,4.40
2018-02-05T13:51:16.167Z,4.40
2018-02-05T13:53:44.495Z,4.40
2018-02-05T13:56:12.807Z,4.40
2018-02-05T13:58:41.151Z,4.40
2018-02-05T14:01:09.455Z,4.40
2018-02-05T14:03:37.786Z,4.50
2018-02-05T14:06:06.092Z,4.50
2018-02-05T14:08:34.432Z,4.50
2018-02-05T14:11:02.751Z,4.50
2018-02-05T14:13:31.075Z,4.40
2018-02-05T14:15:59.373Z,4.50
2018-02-05T14:18:27.715Z,4.60
2018-02-05T14:20:56.023Z,4.50
2018-02-05T14:23:24.357Z,4.40
2018-02-05T14:25:52.687Z,4.30
2018-02-05T14:28:21.008Z,4.30
2018-02-05T14:30:49.314Z,4.30
2018-02-05T14:33:17.650Z,4.20
2018-02-05T14:35:45.957Z,4.20
2018-02-05T14:38:14.322Z,4.10
2018-02-05T14:40:42.636Z,4.10
2018-02-05T14:43:10.950Z,4.10
2018-02-05T14:45:39.274Z,4.10
2018-02-05T14:48:07.592Z,4.00
2018-02-05T14:50:35.927Z,4.00
2018-02-05T14:53:04.234Z,3.90
2018-02-05T14:55:32.579Z,3.70
2018-02-05T14:58:00.898Z,3.60
2018-02-05T15:00:29.237Z,3.50
2018-02-05T15:02:57.545Z,3.50
2018-02-05T15:05:25.877Z,3.40
2018-02-05T15:07:54.178Z,3.40
2018-02-05T15:10:22.509Z,3.30
2018-02-05T15:12:50.822Z,3.30
2018-02-05T15:15:19.146Z,3.20
2018-02-05T15:17:47.463Z,3.10
2018-02-05T15:20:15.787Z,3.10
2018-02-05T15:22:44.090Z,3.00
2018-02-05T15:25:12.422Z,2.90
2018-02-05T15:27:40.738Z,2.90
2018-02-05T15:30:09.097Z,2.80
2018-02-05T15:32:37.416Z,2.80
2018-02-05T15:35:05.753Z,2.70
2018-02-05T15:37:34.072Z,2.70
2018-02-05T15:40:02.418Z,2.60
2018-02-05T15:42:30.727Z,2.60
2018-02-05T15:44:59.068Z,2.40
2018-02-05T15:47:27.390Z,2.30
2018-02-05T15:49:55.735Z,2.30
2018-02-05T15:52:24.051Z,2.20
2018-02-05T15:54:52.392Z,2.10
2018-02-05T15:57:20.721Z,2.10
2018-02-05T15:59:49.059Z,2.00
2018-02-05T16:02:17.373Z,1.90
2018-02-05T16:04:45.712Z,1.80
2018-02-05T16:07:14.042Z,1.80
2018-02-05T16:09:42.387Z,1.70
2018-02-05T16:12:10.711Z,1.70
2018-02-05T16:14:39.042Z,1.60
2018-02-05T16:17:07.360Z,1.50
2018-02-05T16:19:35.694Z,1.40
2018-02-05T16:22:03.994Z,1.30
2018-02-05T16:24:31.554Z,1.30
2018-02-05T16:26:59.948Z,1.10
2018-02-05T16:29:28.219Z,1.00
2018-02-05T16:31:56.554Z,0.90
2018-02-05T16:34:24.864Z,0.80
2018-02-05T16:36:53.195Z,0.70
2018-02-05T16:39:21.525Z,0.60
2018-02-05T16:41:49.875Z,0.60
2018-02-05T16:44:18.192Z,0.50
2018-02-05T16:46:46.529Z,0.40
2018-02-05T16:49:14.847Z,0.30
2018-02-05T16:51:43.180Z,0.30
2018-02-05T16:54:11.481Z,0.20
2018-02-05T16:56:39.821Z,0.10
2018-02-05T16:59:08.135Z,0.00
2018-02-05T17:01:36.466Z,0.00
2018-02-05T17:04:04.783Z,-0.10
2018-02-05T17:06:33.123Z,-0.10
2018-02-05T17:09:01.436Z,-0.20
2018-02-05T17:11:29.836Z,-0.20
2018-02-05T17:13:58.155Z,-0.30
2018-02-05T17:16:26.496Z,-0.30
2018-02-05T17:18:54.811Z,-0.40
2018-02-05T17:21:23.151Z,-0.40
2018-02-05T17:23:51.472Z,-0.50
2018-02-05T17:26:19.807Z,-0.50
2018-02-05T17:28:47.365Z,-0.50
2018-02-05T17:31:15.725Z,-0.60
2018-02-05T17:33:44.034Z,-0.60
2018-02-05T17:36:12.380Z,-0.70
2018-02-05T17:38:40.689Z,-0.70
2018-02-05T17:41:09.017Z,-0.80
2018-02-05T17:43:37.342Z,-0.80
2018-02-05T17:46:05.682Z,-0.80
2018-02-05T17:48:34.003Z,-0.80
2018-02-05T17:51:02.348Z,-0.90
2018-02-05T17:53:30.682Z,-0.90
2018-02-05T17:55:59.015Z,-1.00
2018-02-05T17:58:27.346Z,-1.00
2018-02-05T18:00:55.690Z,-1.00
2018-02-05T18:03:24.009Z,-1.00
2018-02-05T18:05:52.353Z,-1.00
2018-02-05T18:08:20.683Z,-1.10
2018-02-05T18:10:49.017Z,-1.10
2018-02-05T18:13:17.333Z,-1.20
2018-02-05T18:15:45.648Z,-1.20
2018-02-05T18:18:13.986Z,-1.20
2018-02-05T18:20:42.321Z,-1.30
2018-02-05T18:23:10.660Z,-1.30
2018-02-05T18:25:38.986Z,-1.40
2018-02-05T18:28:07.327Z,-1.40
2018-02-05T18:30:35.646Z,-1.40
2018-02-05T18:33:03.982Z,-1.40
2018-02-05T18:35:32.299Z,-1.50
2018-02-05T18:38:00.639Z,-1.50
2018-02-05T18:40:28.958Z,-1.60
2018-02-05T18:42:57.298Z,-1.60
2018-02-05T18:45:25.606Z,-1.60
2018-02-05T18:47:53.950Z,-1.60
2018-02-05T18:50:22.284Z,-1.70
2018-02-05T18:52:50.628Z,-1.70
2018-02-05T18:55:18.936Z,-1.70
2018-02-05T18:57:47.275Z,-1.70
2018-02-05T19:00:27.339Z,-1.80
2018-02-05T19:02:55.687Z,-1.80
2018-02-05T19:05:23.999Z,-1.80
2018-02-05T19:07:52.341Z,-1.80
2018-02-05T19:10:20.658Z,-1.80
2018-02-05T19:12:48.996Z,-1.80
2018-02-05T19:15:17.319Z,-1.80
2018-02-05T19:17:45.669Z,-1.80
2018-02-05T19:20:13.988Z,-1.80
2018-02-05T19:22:42.384Z,-1.90
2018-02-05T19:25:10.848Z,-1.90
2018-02-05T19:27:39.271Z,-1.90
2018-02-05T19:30:07.621Z,-1.90
2018-02-05T19:32:35.983Z,-2.00
2018-02-05T19:35:04.300Z,-2.00
2018-02-05T19:37:32.849Z,-2.00
2018-02-05T19:40:01.171Z,-2.00
2018-02-05T19:42:29.515Z,-1.90
2018-02-05T19:44:57.875Z,-1.90
2018-02-05T19:47:26.195Z,-1.90
2018-02-05T19:49:54.538Z,-2.00
2018-02-05T19:52:22.870Z,-2.00
2018-02-05T19:54:51.276Z,-2.00
2018-02-05T19:57:19.585Z,-2.10
2018-02-05T19:59:47.934Z,-2.10
2018-02-05T20:02:16.251Z,-2.10
2018-02-05T20:04:44.592Z,-2.10
2018-02-05T20:07:12.906Z,-2.10
2018-02-05T20:09:41.248Z,-2.10
2018-02-05T20:12:09.563Z,-2.10
2018-02-05T20:14:37.903Z,-2.10
2018-02-05T20:17:06.226Z,-2.00
2018-02-05T20:19:34.563Z,-2.10
2018-02-05T20:22:02.887Z,-2.00
2018-02-05T20:24:31.226Z,-2.00
2018-02-05T20:26:59.539Z,-2.00
2018-02-05T20:29:27.878Z,-2.00
2018-02-05T20:31:56.206Z,-2.00
2018-02-05T20:34:24.553Z,-1.90
2018-02-05T20:36:52.879Z,-1.90
2018-02-05T20:39:21.234Z,-1.90
2018-02-05T20:41:49.557Z,-1.90
2018-02-05T20:44:17.898Z,-1.80
2018-02-05T20:46:46.219Z,-1.90
2018-02-05T20:49:14.623Z,-1.90
2018-02-05T20:51:42.916Z,-1.90
2018-02-05T20:54:11.246Z,-1.80
2018-02-05T20:56:39.571Z,-1.80
2018-02-05T20:59:07.912Z,-1.80
2018-02-05T21:01:36.229Z,-1.80
2018-02-05T21:04:04.572Z,-1.80
2018-02-05T21:06:32.891Z,-1.80
2018-02-05T21:09:01.243Z,-1.80
2018-02-05T21:11:29.560Z,-1.80
2018-02-05T21:13:57.903Z,-1.80
2018-02-05T21:16:26.221Z,-1.80
2018-02-05T21:18:54.565Z,-1.80
2018-02-05T21:21:22.887Z,-1.70
2018-02-05T21:23:51.226Z,-1.70
2018-02-05T21:26:19.541Z,-1.70
2018-02-05T21:28:47.862Z,-1.70
2018-02-05T21:31:16.198Z,-1.70
2018-02-05T21:33:44.518Z,-1.70
2018-02-05T21:36:12.857Z,-1.60
2018-02-05T21:38:41.182Z,-1.60
2018-02-05T21:41:09.523Z,-1.60
2018-02-05T21:43:37.838Z,-1.60
2018-02-05T21:46:06.170Z,-1.60
2018-02-05T21:48:34.484Z,-1.60
2018-02-05T21:51:02.873Z,-1.70
2018-02-05T21:53:31.158Z,-1.70
2018-02-05T21:55:59.497Z,-1.70
2018-02-05T21:58:27.822Z,-1.70
2018-02-05T22:00:56.163Z,-1.70
2018-02-05T22:03:24.486Z,-1.70
2018-02-05T22:05:52.831Z,-1.70
2018-02-05T22:08:21.142Z,-1.70
2018-02-05T22:10:49.484Z,-1.70
2018-02-05T22:13:17.805Z,-1.70
2018-02-05T22:15:46.150Z,-1.80
2018-02-05T22:18:14.466Z,-1.80
2018-02-05T22:20:42.811Z,-1.80
2018-02-05T22:23:11.130Z,-1.80
2018-02-05T22:25:39.474Z,-1.80
2018-02-05T22:28:07.799Z,-1.80
2018-02-05T22:30:36.142Z,-1.80
2018-02-05T22:33:04.464Z,-1.80
2018-02-05T22:35:32.798Z,-1.70
2018-02-05T22:38:01.122Z,-1.80
2018-02-05T22:40:29.910Z,-1.80
2018-02-05T22:42:58.223Z,-1.80
2018-02-05T22:45:26.619Z,-1.80
2018-02-05T22:47:54.912Z,-1.80
2018-02-05T22:50:23.258Z,-1.80
2018-02-05T22:52:51.571Z,-1.80
2018-02-05T22:55:19.901Z,-1.90
2018-02-05T22:57:48.231Z,-1.90
2018-02-05T23:00:16.568Z,-1.90
2018-02-05T23:02:44.888Z,-1.90
2018-02-05T23:05:13.231Z,-1.90
2018-02-05T23:07:41.545Z,-2.00
2018-02-05T23:10:09.862Z,-2.00
2018-02-05T23:12:38.205Z,-2.00
2018-02-05T23:15:06.587Z,-2.10
2018-02-05T23:17:34.906Z,-2.20
2018-02-05T23:20:03.226Z,-2.20
2018-02-05T23:22:31.566Z,-2.20
2018-02-05T23:24:59.898Z,-2.30
2018-02-05T23:27:28.240Z,-2.40
2018-02-05T23:29:56.558Z,-2.40
2018-02-05T23:32:24.899Z,-2.50
2018-02-05T23:34:53.219Z,-2.50
2018-02-05T23:37:21.559Z,-2.60
2018-02-05T23:39:49.873Z,-2.60
2018-02-05T23:42:18.211Z,-2.70
2018-02-05T23:44:46.522Z,-2.70
2018-02-05T23:47:14.859Z,-2.80
2018-02-05T23:49:43.171Z,-2.80
2018-02-05T23:52:11.516Z,-2.90
2018-02-05T23:54:39.835Z,-2.90
2018-02-05T23:57:08.175Z,-2.90
2018-02-05T23:59:36.505Z,-3.00
